RYR67ZT EGSS-EPMO
Flight info
| Callsign | RYR67ZT |
|---|---|
| Flight time | 1h 49m |
| Altitude | 39000 |
| Route | CLN P44 RATLO M197 REDFA L620 TACHA DCT RKN L980 HLZ DCT SUBIX DCT OBOKU DCT DOSIX |
| Aircraft | B38M/M-SADE3FGILRWY/SB1 |
Departure
| Time | 2026-04-26 17:28 |
|---|---|
| Airport | London Stansted Airport (EGSS) |
Arrival
| Time | 2026-04-26 19:18 |
|---|---|
| Airport | Warsaw Modlin Airport (EPMO) |
| Time | Latitude | Longitude | Altitude | Speed | Heading |
|---|---|---|---|---|---|
| 2026-04-26 16:55 | 51.89263 | 0.25573 | 358 ft | 0 kts | 196° |
| 2026-04-26 17:14 | 51.89277 | 0.25580 | 362 ft | 4 kts | 196° |
| 2026-04-26 17:15 | 51.89313 | 0.25608 | 359 ft | 4 kts | 272° |
| 2026-04-26 17:15 | 51.89301 | 0.25637 | 359 ft | 4 kts | 313° |
| 2026-04-26 17:15 | 51.89295 | 0.25648 | 359 ft | 0 kts | 313° |
| 2026-04-26 17:20 | 51.89315 | 0.25613 | 360 ft | 7 kts | 313° |
| 2026-04-26 17:20 | 51.89332 | 0.25518 | 359 ft | 13 kts | 238° |
| 2026-04-26 17:21 | 51.89262 | 0.25407 | 355 ft | 15 kts | 223° |
| 2026-04-26 17:21 | 51.89181 | 0.25285 | 357 ft | 16 kts | 223° |
| 2026-04-26 17:21 | 51.89093 | 0.25153 | 358 ft | 18 kts | 223° |
| 2026-04-26 17:21 | 51.89008 | 0.25026 | 355 ft | 18 kts | 223° |
| 2026-04-26 17:22 | 51.88913 | 0.24883 | 357 ft | 20 kts | 223° |
| 2026-04-26 17:22 | 51.88820 | 0.24744 | 355 ft | 15 kts | 223° |
| 2026-04-26 17:22 | 51.88758 | 0.24651 | 354 ft | 14 kts | 224° |
| 2026-04-26 17:22 | 51.88693 | 0.24553 | 346 ft | 13 kts | 222° |
| 2026-04-26 17:23 | 51.88618 | 0.24441 | 346 ft | 16 kts | 223° |
| 2026-04-26 17:23 | 51.88530 | 0.24309 | 351 ft | 19 kts | 223° |
| 2026-04-26 17:23 | 51.88430 | 0.24158 | 355 ft | 21 kts | 222° |
| 2026-04-26 17:23 | 51.88332 | 0.24011 | 346 ft | 20 kts | 223° |
| 2026-04-26 17:24 | 51.88226 | 0.23851 | 351 ft | 21 kts | 223° |
| 2026-04-26 17:24 | 51.88131 | 0.23709 | 339 ft | 17 kts | 223° |
| 2026-04-26 17:24 | 51.88039 | 0.23572 | 335 ft | 19 kts | 223° |
| 2026-04-26 17:24 | 51.87948 | 0.23435 | 335 ft | 16 kts | 223° |
| 2026-04-26 17:25 | 51.87871 | 0.23304 | 338 ft | 14 kts | 251° |
| 2026-04-26 17:25 | 51.87916 | 0.23176 | 337 ft | 14 kts | 305° |
| 2026-04-26 17:25 | 51.87890 | 0.23049 | 339 ft | 12 kts | 223° |
| 2026-04-26 17:25 | 51.87821 | 0.22946 | 337 ft | 15 kts | 223° |
| 2026-04-26 17:26 | 51.87741 | 0.22827 | 335 ft | 17 kts | 223° |
| 2026-04-26 17:26 | 51.87658 | 0.22702 | 338 ft | 16 kts | 223° |
| 2026-04-26 17:26 | 51.87578 | 0.22582 | 334 ft | 18 kts | 223° |
| 2026-04-26 17:26 | 51.87501 | 0.22467 | 333 ft | 16 kts | 223° |
| 2026-04-26 17:27 | 51.87429 | 0.22359 | 331 ft | 13 kts | 223° |
| 2026-04-26 17:27 | 51.87405 | 0.22213 | 327 ft | 15 kts | 291° |
| 2026-04-26 17:27 | 51.87475 | 0.22075 | 323 ft | 18 kts | 312° |
| 2026-04-26 17:27 | 51.87541 | 0.22040 | 323 ft | 7 kts | 43° |
| 2026-04-26 17:28 | 51.87596 | 0.22123 | 326 ft | 21 kts | 44° |
| 2026-04-26 17:28 | 51.87907 | 0.22602 | 336 ft | 100 kts | 44° |
| 2026-04-26 17:28 | 51.88593 | 0.23619 | 358 ft | 163 kts | 43° |
| 2026-04-26 17:28 | 51.89462 | 0.24941 | 958 ft | 175 kts | 46° |
| 2026-04-26 17:29 | 51.90352 | 0.26295 | 1938 ft | 175 kts | 45° |
| 2026-04-26 17:29 | 51.90652 | 0.26748 | 2257 ft | 175 kts | 44° |
| 2026-04-26 17:29 | 51.91688 | 0.29781 | 2931 ft | 209 kts | 88° |
| 2026-04-26 17:29 | 51.91374 | 0.32113 | 3607 ft | 226 kts | 113° |
| 2026-04-26 17:30 | 51.90704 | 0.34536 | 4356 ft | 245 kts | 114° |
| 2026-04-26 17:30 | 51.89972 | 0.37142 | 5149 ft | 262 kts | 115° |
| 2026-04-26 17:30 | 51.89201 | 0.39851 | 6197 ft | 266 kts | 115° |
| 2026-04-26 17:30 | 51.88406 | 0.42603 | 7190 ft | 274 kts | 115° |
| 2026-04-26 17:31 | 51.87582 | 0.45432 | 8131 ft | 281 kts | 116° |
| 2026-04-26 17:31 | 51.86735 | 0.48334 | 9027 ft | 288 kts | 116° |
| 2026-04-26 17:31 | 51.85864 | 0.51305 | 9956 ft | 296 kts | 116° |
| 2026-04-26 17:31 | 51.84969 | 0.54355 | 10775 ft | 305 kts | 116° |
| 2026-04-26 17:32 | 51.84039 | 0.57516 | 11173 ft | 324 kts | 116° |
| 2026-04-26 17:32 | 51.83271 | 0.60970 | 11234 ft | 329 kts | 100° |
| 2026-04-26 17:32 | 51.83154 | 0.64684 | 11291 ft | 333 kts | 89° |
| 2026-04-26 17:32 | 51.83220 | 0.68473 | 11656 ft | 338 kts | 88° |
| 2026-04-26 17:33 | 51.83324 | 0.72250 | 12667 ft | 337 kts | 87° |
| 2026-04-26 17:33 | 51.83402 | 0.74772 | 13214 ft | 341 kts | 87° |
| 2026-04-26 17:33 | 51.83578 | 0.79913 | 14299 ft | 347 kts | 87° |
| 2026-04-26 17:34 | 51.83817 | 0.86469 | 15543 ft | 353 kts | 87° |
| 2026-04-26 17:34 | 51.83965 | 0.90465 | 16273 ft | 357 kts | 87° |
| 2026-04-26 17:34 | 51.84114 | 0.94486 | 16998 ft | 360 kts | 87° |
| 2026-04-26 17:34 | 51.84264 | 0.98550 | 17710 ft | 364 kts | 87° |
| 2026-04-26 17:35 | 51.84413 | 1.02648 | 18416 ft | 367 kts | 88° |
| 2026-04-26 17:35 | 51.84564 | 1.06789 | 19051 ft | 369 kts | 88° |
| 2026-04-26 17:35 | 51.84713 | 1.10962 | 19591 ft | 374 kts | 87° |
| 2026-04-26 17:35 | 51.85083 | 1.15141 | 20112 ft | 378 kts | 72° |
| 2026-04-26 17:36 | 51.86067 | 1.19049 | 20675 ft | 381 kts | 67° |
| 2026-04-26 17:36 | 51.87111 | 1.23040 | 21153 ft | 387 kts | 66° |
| 2026-04-26 17:36 | 51.88180 | 1.27066 | 21696 ft | 390 kts | 66° |
| 2026-04-26 17:36 | 51.89266 | 1.31130 | 22218 ft | 395 kts | 66° |
| 2026-04-26 17:37 | 51.90366 | 1.35237 | 22738 ft | 399 kts | 66° |
| 2026-04-26 17:37 | 51.91461 | 1.39325 | 23255 ft | 403 kts | 66° |
| 2026-04-26 17:37 | 51.92582 | 1.43515 | 23773 ft | 407 kts | 66° |
| 2026-04-26 17:38 | 51.94847 | 1.52009 | 24648 ft | 414 kts | 65° |
| 2026-04-26 17:38 | 51.95993 | 1.56316 | 25105 ft | 417 kts | 65° |
| 2026-04-26 17:38 | 51.97147 | 1.60662 | 25564 ft | 420 kts | 65° |
| 2026-04-26 17:38 | 51.98304 | 1.65027 | 26009 ft | 423 kts | 65° |
| 2026-04-26 17:39 | 51.99363 | 1.69499 | 26446 ft | 426 kts | 74° |
| 2026-04-26 17:39 | 52.00071 | 1.74145 | 26893 ft | 428 kts | 75° |
| 2026-04-26 17:39 | 52.00809 | 1.78869 | 27298 ft | 432 kts | 75° |
| 2026-04-26 17:39 | 52.01548 | 1.83617 | 27719 ft | 434 kts | 75° |
| 2026-04-26 17:40 | 52.02280 | 1.88342 | 28132 ft | 437 kts | 75° |
| 2026-04-26 17:40 | 52.02782 | 1.91586 | 28404 ft | 439 kts | 75° |
| 2026-04-26 17:40 | 52.03769 | 1.97983 | 28962 ft | 442 kts | 75° |
| 2026-04-26 17:40 | 52.04516 | 2.02849 | 29368 ft | 444 kts | 75° |
| 2026-04-26 17:41 | 52.05266 | 2.07743 | 29744 ft | 447 kts | 75° |
| 2026-04-26 17:41 | 52.06016 | 2.12655 | 30117 ft | 450 kts | 75° |
| 2026-04-26 17:41 | 52.06769 | 2.17603 | 30466 ft | 452 kts | 75° |
| 2026-04-26 17:41 | 52.07528 | 2.22600 | 30784 ft | 455 kts | 75° |
| 2026-04-26 17:42 | 52.08277 | 2.27553 | 31100 ft | 457 kts | 75° |
| 2026-04-26 17:42 | 52.09035 | 2.32578 | 31429 ft | 458 kts | 75° |
| 2026-04-26 17:42 | 52.09793 | 2.37621 | 31742 ft | 460 kts | 75° |
| 2026-04-26 17:42 | 52.10554 | 2.42695 | 32061 ft | 462 kts | 75° |
| 2026-04-26 17:43 | 52.11327 | 2.47791 | 32381 ft | 464 kts | 72° |
| 2026-04-26 17:43 | 52.12298 | 2.52802 | 32669 ft | 465 kts | 70° |
| 2026-04-26 17:43 | 52.13276 | 2.57833 | 32973 ft | 467 kts | 70° |
| 2026-04-26 17:43 | 52.14240 | 2.62891 | 33272 ft | 469 kts | 71° |
| 2026-04-26 17:44 | 52.15203 | 2.67994 | 33580 ft | 471 kts | 71° |
| 2026-04-26 17:44 | 52.15957 | 2.73202 | 33873 ft | 475 kts | 82° |
| 2026-04-26 17:44 | 52.16171 | 2.78509 | 34189 ft | 476 kts | 84° |
| 2026-04-26 17:44 | 52.16447 | 2.83908 | 34492 ft | 476 kts | 83° |
| 2026-04-26 17:45 | 52.16746 | 2.89278 | 34833 ft | 475 kts | 83° |
| 2026-04-26 17:45 | 52.17053 | 2.94642 | 35174 ft | 475 kts | 83° |
| 2026-04-26 17:45 | 52.17361 | 2.99990 | 35517 ft | 474 kts | 83° |
| 2026-04-26 17:45 | 52.17666 | 3.05337 | 35853 ft | 473 kts | 83° |
| 2026-04-26 17:46 | 52.17965 | 3.10602 | 36169 ft | 472 kts | 83° |
| 2026-04-26 17:46 | 52.18266 | 3.15935 | 36471 ft | 471 kts | 83° |
| 2026-04-26 17:46 | 52.18564 | 3.21274 | 36766 ft | 471 kts | 83° |
| 2026-04-26 17:46 | 52.18859 | 3.26598 | 37055 ft | 470 kts | 83° |
| 2026-04-26 17:47 | 52.19152 | 3.31912 | 37337 ft | 470 kts | 83° |
| 2026-04-26 17:47 | 52.19344 | 3.35428 | 37512 ft | 470 kts | 83° |
| 2026-04-26 17:47 | 52.19724 | 3.42447 | 37860 ft | 469 kts | 83° |
| 2026-04-26 17:47 | 52.20012 | 3.47814 | 38135 ft | 469 kts | 83° |
| 2026-04-26 17:48 | 52.20291 | 3.53052 | 38361 ft | 469 kts | 83° |
| 2026-04-26 17:48 | 52.20570 | 3.58357 | 38613 ft | 468 kts | 83° |
| 2026-04-26 17:48 | 52.20847 | 3.63643 | 38845 ft | 468 kts | 83° |
| 2026-04-26 17:48 | 52.21121 | 3.68944 | 39052 ft | 467 kts | 83° |
| 2026-04-26 17:49 | 52.21390 | 3.74173 | 39210 ft | 467 kts | 83° |
| 2026-04-26 17:49 | 52.21659 | 3.79459 | 39310 ft | 468 kts | 83° |
| 2026-04-26 17:49 | 52.22192 | 3.90052 | 39327 ft | 466 kts | 83° |
| 2026-04-26 17:50 | 52.22710 | 4.00551 | 39318 ft | 467 kts | 83° |
| 2026-04-26 17:50 | 52.23222 | 4.11128 | 39312 ft | 467 kts | 83° |
| 2026-04-26 17:51 | 52.23726 | 4.21718 | 39307 ft | 467 kts | 83° |
| 2026-04-26 17:51 | 52.24219 | 4.32289 | 39310 ft | 467 kts | 84° |
| 2026-04-26 17:52 | 52.24701 | 4.42832 | 39309 ft | 467 kts | 84° |
| 2026-04-26 17:52 | 52.25176 | 4.53420 | 39308 ft | 467 kts | 84° |
| 2026-04-26 17:53 | 52.25642 | 4.64019 | 39310 ft | 467 kts | 84° |
| 2026-04-26 17:54 | 52.26320 | 4.79862 | 39322 ft | 467 kts | 84° |
| 2026-04-26 17:54 | 52.26760 | 4.90411 | 39319 ft | 467 kts | 84° |
| 2026-04-26 17:55 | 52.27193 | 5.01041 | 39320 ft | 468 kts | 84° |
| 2026-04-26 17:55 | 52.27614 | 5.11587 | 39317 ft | 468 kts | 84° |
| 2026-04-26 17:56 | 52.28028 | 5.22219 | 39317 ft | 468 kts | 84° |
| 2026-04-26 17:57 | 52.28825 | 5.43412 | 39316 ft | 468 kts | 84° |
| 2026-04-26 17:57 | 52.29208 | 5.53963 | 39316 ft | 467 kts | 84° |
| 2026-04-26 17:58 | 52.29950 | 5.75212 | 39304 ft | 467 kts | 84° |
| 2026-04-26 17:59 | 52.30479 | 5.91085 | 39304 ft | 467 kts | 84° |
| 2026-04-26 17:59 | 52.30821 | 6.01701 | 39301 ft | 467 kts | 84° |
| 2026-04-26 18:00 | 52.31153 | 6.12306 | 39306 ft | 467 kts | 84° |
| 2026-04-26 18:00 | 52.31474 | 6.22864 | 39298 ft | 467 kts | 84° |
| 2026-04-26 18:01 | 52.31787 | 6.33483 | 39297 ft | 467 kts | 84° |
| 2026-04-26 18:01 | 52.32090 | 6.44036 | 39296 ft | 467 kts | 85° |
| 2026-04-26 18:02 | 52.32337 | 6.52924 | 39294 ft | 466 kts | 84° |
| 2026-04-26 18:02 | 52.32668 | 6.65256 | 39295 ft | 466 kts | 84° |
| 2026-04-26 18:03 | 52.32942 | 6.75803 | 39286 ft | 466 kts | 85° |
| 2026-04-26 18:03 | 52.33208 | 6.86449 | 39289 ft | 467 kts | 85° |
| 2026-04-26 18:04 | 52.33464 | 6.97026 | 39304 ft | 467 kts | 85° |
| 2026-04-26 18:05 | 52.33830 | 7.12966 | 39288 ft | 466 kts | 85° |
| 2026-04-26 18:05 | 52.34061 | 7.23506 | 39286 ft | 467 kts | 85° |
| 2026-04-26 18:06 | 52.34284 | 7.34141 | 39285 ft | 467 kts | 85° |
| 2026-04-26 18:06 | 52.34497 | 7.44718 | 39307 ft | 467 kts | 85° |
| 2026-04-26 18:07 | 52.34701 | 7.55346 | 39295 ft | 467 kts | 85° |
| 2026-04-26 18:07 | 52.34895 | 7.65978 | 39294 ft | 467 kts | 85° |
| 2026-04-26 18:08 | 52.35080 | 7.76583 | 39293 ft | 467 kts | 85° |
| 2026-04-26 18:08 | 52.35254 | 7.87151 | 39295 ft | 467 kts | 85° |
| 2026-04-26 18:09 | 52.35421 | 7.97796 | 39303 ft | 467 kts | 85° |
| 2026-04-26 18:09 | 52.35576 | 8.08401 | 39293 ft | 468 kts | 85° |
| 2026-04-26 18:10 | 52.35724 | 8.19073 | 39296 ft | 468 kts | 85° |
| 2026-04-26 18:10 | 52.35861 | 8.29728 | 39292 ft | 468 kts | 85° |
| 2026-04-26 18:11 | 52.35988 | 8.40313 | 39298 ft | 468 kts | 85° |
| 2026-04-26 18:11 | 52.36107 | 8.50987 | 39303 ft | 469 kts | 86° |
| 2026-04-26 18:12 | 52.36216 | 8.61689 | 39298 ft | 469 kts | 86° |
| 2026-04-26 18:12 | 52.36315 | 8.72305 | 39292 ft | 469 kts | 86° |
| 2026-04-26 18:13 | 52.36405 | 8.82997 | 39293 ft | 469 kts | 86° |
| 2026-04-26 18:13 | 52.36485 | 8.93616 | 39289 ft | 469 kts | 86° |
| 2026-04-26 18:14 | 52.36556 | 9.04329 | 39295 ft | 470 kts | 86° |
| 2026-04-26 18:14 | 52.36617 | 9.15028 | 39293 ft | 470 kts | 86° |
| 2026-04-26 18:15 | 52.36668 | 9.25695 | 39293 ft | 470 kts | 86° |
| 2026-04-26 18:15 | 52.36710 | 9.36413 | 39293 ft | 470 kts | 86° |
| 2026-04-26 18:16 | 52.36742 | 9.47059 | 39295 ft | 470 kts | 86° |
| 2026-04-26 18:16 | 52.36772 | 9.63138 | 39291 ft | 470 kts | 86° |
| 2026-04-26 18:17 | 52.36780 | 9.73837 | 39300 ft | 470 kts | 86° |
| 2026-04-26 18:17 | 52.36778 | 9.84489 | 39293 ft | 471 kts | 87° |
| 2026-04-26 18:18 | 52.36767 | 9.95221 | 39303 ft | 471 kts | 87° |
| 2026-04-26 18:18 | 52.36750 | 10.04152 | 39295 ft | 471 kts | 87° |
| 2026-04-26 18:19 | 52.36871 | 10.14791 | 39291 ft | 468 kts | 82° |
| 2026-04-26 18:19 | 52.37309 | 10.25468 | 39290 ft | 470 kts | 83° |
| 2026-04-26 18:20 | 52.37686 | 10.36155 | 39292 ft | 469 kts | 83° |
| 2026-04-26 18:20 | 52.37987 | 10.45038 | 39293 ft | 469 kts | 83° |
| 2026-04-26 18:21 | 52.38396 | 10.57468 | 39296 ft | 471 kts | 84° |
| 2026-04-26 18:21 | 52.38739 | 10.68203 | 39294 ft | 471 kts | 84° |
| 2026-04-26 18:22 | 52.39071 | 10.78870 | 39294 ft | 471 kts | 84° |
| 2026-04-26 18:22 | 52.39394 | 10.89597 | 39290 ft | 471 kts | 84° |
| 2026-04-26 18:23 | 52.39708 | 11.00328 | 39298 ft | 471 kts | 84° |
| 2026-04-26 18:23 | 52.40010 | 11.11007 | 39289 ft | 472 kts | 84° |
| 2026-04-26 18:24 | 52.40306 | 11.21781 | 39290 ft | 472 kts | 84° |
| 2026-04-26 18:24 | 52.40589 | 11.32477 | 39286 ft | 472 kts | 85° |
| 2026-04-26 18:25 | 52.40865 | 11.43251 | 39294 ft | 472 kts | 85° |
| 2026-04-26 18:25 | 52.41130 | 11.53964 | 39299 ft | 473 kts | 85° |
| 2026-04-26 18:26 | 52.41386 | 11.64764 | 39295 ft | 474 kts | 85° |
| 2026-04-26 18:26 | 52.41633 | 11.75565 | 39293 ft | 474 kts | 85° |
| 2026-04-26 18:27 | 52.41870 | 11.86319 | 39303 ft | 474 kts | 85° |
| 2026-04-26 18:27 | 52.42096 | 11.97072 | 39296 ft | 474 kts | 85° |
| 2026-04-26 18:28 | 52.42314 | 12.07887 | 39291 ft | 474 kts | 85° |
| 2026-04-26 18:28 | 52.42521 | 12.18699 | 39298 ft | 475 kts | 85° |
| 2026-04-26 18:29 | 52.42719 | 12.29479 | 39298 ft | 475 kts | 85° |
| 2026-04-26 18:29 | 52.42907 | 12.40303 | 39297 ft | 475 kts | 85° |
| 2026-04-26 18:30 | 52.43084 | 12.51062 | 39301 ft | 475 kts | 85° |
| 2026-04-26 18:30 | 52.43253 | 12.61880 | 39292 ft | 475 kts | 85° |
| 2026-04-26 18:31 | 52.43412 | 12.72744 | 39303 ft | 475 kts | 85° |
| 2026-04-26 18:31 | 52.43561 | 12.83583 | 39299 ft | 475 kts | 86° |
| 2026-04-26 18:32 | 52.43700 | 12.94432 | 39293 ft | 475 kts | 86° |
| 2026-04-26 18:32 | 52.43829 | 13.05209 | 39302 ft | 475 kts | 86° |
| 2026-04-26 18:33 | 52.43948 | 13.16060 | 39297 ft | 476 kts | 86° |
| 2026-04-26 18:33 | 52.44058 | 13.26928 | 39294 ft | 476 kts | 86° |
| 2026-04-26 18:34 | 52.44157 | 13.37731 | 39295 ft | 476 kts | 86° |
| 2026-04-26 18:34 | 52.44246 | 13.48600 | 39293 ft | 476 kts | 86° |
| 2026-04-26 18:35 | 52.44326 | 13.59467 | 39298 ft | 476 kts | 86° |
| 2026-04-26 18:35 | 52.44395 | 13.70271 | 39294 ft | 477 kts | 86° |
| 2026-04-26 18:36 | 52.44456 | 13.81175 | 39316 ft | 476 kts | 86° |
| 2026-04-26 18:36 | 52.44505 | 13.92042 | 39300 ft | 476 kts | 86° |
| 2026-04-26 18:37 | 52.44545 | 14.02903 | 39301 ft | 477 kts | 86° |
| 2026-04-26 18:37 | 52.44575 | 14.13708 | 39301 ft | 477 kts | 86° |
| 2026-04-26 18:38 | 52.44595 | 14.24613 | 39302 ft | 477 kts | 86° |
| 2026-04-26 18:38 | 52.44605 | 14.35522 | 39301 ft | 477 kts | 86° |
| 2026-04-26 18:39 | 52.44605 | 14.46364 | 39302 ft | 477 kts | 86° |
| 2026-04-26 18:39 | 52.44595 | 14.57262 | 39303 ft | 477 kts | 86° |
| 2026-04-26 18:40 | 52.44728 | 14.68136 | 39301 ft | 474 kts | 81° |
| 2026-04-26 18:40 | 52.45217 | 14.78890 | 39304 ft | 476 kts | 82° |
| 2026-04-26 18:41 | 52.45638 | 14.89738 | 39303 ft | 475 kts | 83° |
| 2026-04-26 18:41 | 52.46039 | 15.00507 | 39300 ft | 475 kts | 83° |
| 2026-04-26 18:42 | 52.46434 | 15.11356 | 39312 ft | 476 kts | 83° |
| 2026-04-26 18:42 | 52.46818 | 15.22219 | 39306 ft | 476 kts | 83° |
| 2026-04-26 18:43 | 52.47192 | 15.33044 | 39300 ft | 476 kts | 83° |
| 2026-04-26 18:43 | 52.47554 | 15.43827 | 39300 ft | 476 kts | 83° |
| 2026-04-26 18:44 | 52.47909 | 15.54700 | 39307 ft | 476 kts | 83° |
| 2026-04-26 18:44 | 52.48254 | 15.65562 | 39308 ft | 477 kts | 83° |
| 2026-04-26 18:45 | 52.48588 | 15.76429 | 39298 ft | 477 kts | 83° |
| 2026-04-26 18:45 | 52.48912 | 15.87245 | 39305 ft | 477 kts | 83° |
| 2026-04-26 18:46 | 52.49227 | 15.98126 | 39301 ft | 477 kts | 83° |
| 2026-04-26 18:46 | 52.49534 | 16.09059 | 39294 ft | 477 kts | 83° |
| 2026-04-26 18:47 | 52.49827 | 16.19867 | 39304 ft | 477 kts | 83° |
| 2026-04-26 18:47 | 52.50113 | 16.30770 | 39301 ft | 477 kts | 83° |
| 2026-04-26 18:48 | 52.50389 | 16.41686 | 39298 ft | 477 kts | 83° |
| 2026-04-26 18:48 | 52.50655 | 16.52600 | 39295 ft | 478 kts | 84° |
| 2026-04-26 18:49 | 52.50910 | 16.63452 | 39294 ft | 477 kts | 84° |
| 2026-04-26 18:49 | 52.51156 | 16.74368 | 39297 ft | 478 kts | 84° |
| 2026-04-26 18:50 | 52.51390 | 16.85218 | 39294 ft | 478 kts | 84° |
| 2026-04-26 18:50 | 52.51617 | 16.96165 | 39306 ft | 478 kts | 84° |
| 2026-04-26 18:51 | 52.51831 | 17.07014 | 39304 ft | 478 kts | 84° |
| 2026-04-26 18:51 | 52.52037 | 17.17946 | 39297 ft | 478 kts | 84° |
| 2026-04-26 18:52 | 52.52232 | 17.28844 | 39295 ft | 479 kts | 84° |
| 2026-04-26 18:52 | 52.52419 | 17.39807 | 39293 ft | 479 kts | 84° |
| 2026-04-26 18:53 | 52.52595 | 17.50780 | 39291 ft | 479 kts | 84° |
| 2026-04-26 18:53 | 52.52760 | 17.61667 | 39275 ft | 480 kts | 84° |
| 2026-04-26 18:54 | 52.52840 | 17.67153 | 39103 ft | 480 kts | 84° |
| 2026-04-26 18:54 | 52.52916 | 17.72609 | 38793 ft | 475 kts | 84° |
| 2026-04-26 18:54 | 52.52990 | 17.78046 | 37883 ft | 479 kts | 84° |
| 2026-04-26 18:54 | 52.53063 | 17.83597 | 36768 ft | 489 kts | 84° |
| 2026-04-26 18:55 | 52.53134 | 17.89224 | 35916 ft | 493 kts | 84° |
| 2026-04-26 18:55 | 52.53202 | 17.94861 | 35314 ft | 492 kts | 84° |
| 2026-04-26 18:55 | 52.53267 | 18.00405 | 34737 ft | 490 kts | 84° |
| 2026-04-26 18:55 | 52.53329 | 18.06014 | 33934 ft | 493 kts | 84° |
| 2026-04-26 18:56 | 52.53391 | 18.11695 | 32935 ft | 498 kts | 84° |
| 2026-04-26 18:56 | 52.53449 | 18.17437 | 32033 ft | 502 kts | 84° |
| 2026-04-26 18:56 | 52.53505 | 18.23177 | 31321 ft | 501 kts | 84° |
| 2026-04-26 18:56 | 52.53558 | 18.28871 | 30763 ft | 497 kts | 84° |
| 2026-04-26 18:57 | 52.53607 | 18.34466 | 30125 ft | 494 kts | 84° |
| 2026-04-26 18:57 | 52.53623 | 18.36374 | 29860 ft | 494 kts | 84° |
| 2026-04-26 18:57 | 52.53698 | 18.45720 | 28761 ft | 488 kts | 84° |
| 2026-04-26 18:57 | 52.53739 | 18.51280 | 28161 ft | 485 kts | 84° |
| 2026-04-26 18:58 | 52.53777 | 18.56820 | 27503 ft | 482 kts | 84° |
| 2026-04-26 18:58 | 52.53812 | 18.62250 | 26872 ft | 480 kts | 84° |
| 2026-04-26 18:58 | 52.53845 | 18.67739 | 26252 ft | 477 kts | 84° |
| 2026-04-26 18:58 | 52.53875 | 18.73183 | 25630 ft | 475 kts | 84° |
| 2026-04-26 18:59 | 52.53903 | 18.78594 | 25042 ft | 472 kts | 83° |
| 2026-04-26 18:59 | 52.53928 | 18.83981 | 24422 ft | 471 kts | 83° |
| 2026-04-26 18:59 | 52.53950 | 18.89346 | 23787 ft | 469 kts | 83° |
| 2026-04-26 18:59 | 52.53969 | 18.94612 | 23097 ft | 462 kts | 83° |
| 2026-04-26 19:00 | 52.53986 | 18.99838 | 22499 ft | 451 kts | 83° |
| 2026-04-26 19:00 | 52.54000 | 19.04928 | 21953 ft | 439 kts | 82° |
| 2026-04-26 19:00 | 52.54013 | 19.09879 | 21413 ft | 428 kts | 82° |
| 2026-04-26 19:00 | 52.54022 | 19.14721 | 20883 ft | 419 kts | 82° |
| 2026-04-26 19:01 | 52.54030 | 19.19474 | 20367 ft | 412 kts | 82° |
| 2026-04-26 19:01 | 52.54036 | 19.24194 | 19850 ft | 412 kts | 82° |
| 2026-04-26 19:01 | 52.54040 | 19.28847 | 19348 ft | 412 kts | 82° |
| 2026-04-26 19:01 | 52.54042 | 19.33553 | 18879 ft | 411 kts | 81° |
| 2026-04-26 19:02 | 52.54042 | 19.38271 | 18337 ft | 411 kts | 81° |
| 2026-04-26 19:02 | 52.54039 | 19.42954 | 17797 ft | 409 kts | 82° |
| 2026-04-26 19:02 | 52.54037 | 19.46039 | 17474 ft | 408 kts | 82° |
| 2026-04-26 19:02 | 52.54034 | 19.49127 | 17132 ft | 406 kts | 82° |
| 2026-04-26 19:03 | 52.54022 | 19.56802 | 16372 ft | 401 kts | 82° |
| 2026-04-26 19:03 | 52.54017 | 19.59903 | 16040 ft | 399 kts | 82° |
| 2026-04-26 19:03 | 52.54007 | 19.64398 | 15581 ft | 397 kts | 82° |
| 2026-04-26 19:03 | 52.53995 | 19.68909 | 15137 ft | 394 kts | 83° |
| 2026-04-26 19:04 | 52.53982 | 19.73406 | 14664 ft | 392 kts | 83° |
| 2026-04-26 19:04 | 52.53967 | 19.77883 | 14210 ft | 389 kts | 83° |
| 2026-04-26 19:04 | 52.53950 | 19.82329 | 13712 ft | 387 kts | 83° |
| 2026-04-26 19:04 | 52.53932 | 19.86678 | 13225 ft | 384 kts | 84° |
| 2026-04-26 19:05 | 52.53892 | 19.95357 | 12324 ft | 376 kts | 84° |
| 2026-04-26 19:05 | 52.53870 | 19.99631 | 11882 ft | 372 kts | 85° |
| 2026-04-26 19:05 | 52.53846 | 20.03851 | 11463 ft | 365 kts | 85° |
| 2026-04-26 19:06 | 52.53822 | 20.07959 | 11177 ft | 354 kts | 85° |
| 2026-04-26 19:06 | 52.53798 | 20.11954 | 11023 ft | 340 kts | 85° |
| 2026-04-26 19:06 | 52.53773 | 20.15723 | 10863 ft | 328 kts | 85° |
| 2026-04-26 19:06 | 52.53748 | 20.19408 | 10701 ft | 316 kts | 85° |
| 2026-04-26 19:07 | 52.53723 | 20.22960 | 10548 ft | 305 kts | 85° |
| 2026-04-26 19:07 | 52.53697 | 20.26389 | 10400 ft | 295 kts | 85° |
| 2026-04-26 19:07 | 52.53671 | 20.29707 | 10248 ft | 285 kts | 85° |
| 2026-04-26 19:07 | 52.53645 | 20.32937 | 9964 ft | 281 kts | 85° |
| 2026-04-26 19:08 | 52.53619 | 20.36108 | 9632 ft | 280 kts | 85° |
| 2026-04-26 19:08 | 52.53592 | 20.39309 | 9307 ft | 279 kts | 85° |
| 2026-04-26 19:08 | 52.53564 | 20.42488 | 8993 ft | 277 kts | 85° |
| 2026-04-26 19:08 | 52.53535 | 20.45644 | 8694 ft | 275 kts | 85° |
| 2026-04-26 19:09 | 52.53506 | 20.48783 | 8404 ft | 273 kts | 85° |
| 2026-04-26 19:09 | 52.53476 | 20.51888 | 8109 ft | 271 kts | 85° |
| 2026-04-26 19:09 | 52.53445 | 20.54984 | 7819 ft | 269 kts | 86° |
| 2026-04-26 19:09 | 52.53414 | 20.58057 | 7527 ft | 268 kts | 86° |
| 2026-04-26 19:10 | 52.53383 | 20.61067 | 7247 ft | 266 kts | 86° |
| 2026-04-26 19:10 | 52.53424 | 20.64082 | 6942 ft | 262 kts | 77° |
| 2026-04-26 19:10 | 52.53733 | 20.67048 | 6513 ft | 265 kts | 75° |
| 2026-04-26 19:10 | 52.54040 | 20.70062 | 6093 ft | 268 kts | 76° |
| 2026-04-26 19:11 | 52.54329 | 20.73083 | 5772 ft | 267 kts | 76° |
| 2026-04-26 19:11 | 52.54607 | 20.76092 | 5467 ft | 265 kts | 77° |
| 2026-04-26 19:11 | 52.54877 | 20.79082 | 5173 ft | 264 kts | 77° |
| 2026-04-26 19:11 | 52.55141 | 20.82059 | 4874 ft | 262 kts | 77° |
| 2026-04-26 19:12 | 52.55401 | 20.85015 | 4576 ft | 260 kts | 77° |
| 2026-04-26 19:12 | 52.55654 | 20.87914 | 4325 ft | 256 kts | 77° |
| 2026-04-26 19:12 | 52.55655 | 20.90814 | 4119 ft | 256 kts | 102° |
| 2026-04-26 19:12 | 52.54803 | 20.93391 | 3907 ft | 260 kts | 127° |
| 2026-04-26 19:13 | 52.53414 | 20.95261 | 3677 ft | 259 kts | 157° |
| 2026-04-26 19:13 | 52.51686 | 20.95612 | 3548 ft | 245 kts | 194° |
| 2026-04-26 19:13 | 52.50203 | 20.94525 | 3519 ft | 226 kts | 221° |
| 2026-04-26 19:13 | 52.48962 | 20.93072 | 3415 ft | 216 kts | 223° |
| 2026-04-26 19:14 | 52.48024 | 20.91323 | 3247 ft | 194 kts | 255° |
| 2026-04-26 19:14 | 52.47649 | 20.89288 | 3138 ft | 187 kts | 265° |
| 2026-04-26 19:14 | 52.47360 | 20.87220 | 3082 ft | 180 kts | 266° |
| 2026-04-26 19:14 | 52.47193 | 20.85925 | 3031 ft | 171 kts | 267° |
| 2026-04-26 19:15 | 52.46902 | 20.83376 | 2649 ft | 170 kts | 267° |
| 2026-04-26 19:15 | 52.46699 | 20.81454 | 2344 ft | 171 kts | 267° |
| 2026-04-26 19:15 | 52.46505 | 20.79557 | 2040 ft | 171 kts | 268° |
| 2026-04-26 19:15 | 52.46313 | 20.77648 | 1782 ft | 164 kts | 268° |
| 2026-04-26 19:16 | 52.46131 | 20.75825 | 1558 ft | 157 kts | 266° |
| 2026-04-26 19:16 | 52.45962 | 20.74152 | 1379 ft | 143 kts | 268° |
| 2026-04-26 19:16 | 52.45815 | 20.72548 | 1126 ft | 141 kts | 266° |
| 2026-04-26 19:16 | 52.45658 | 20.70947 | 861 ft | 143 kts | 264° |
| 2026-04-26 19:17 | 52.45505 | 20.69366 | 665 ft | 138 kts | 264° |
| 2026-04-26 19:17 | 52.45368 | 20.67837 | 459 ft | 136 kts | 264° |
| 2026-04-26 19:17 | 52.45230 | 20.66338 | 339 ft | 124 kts | 262° |
| 2026-04-26 19:17 | 52.45113 | 20.65084 | 339 ft | 97 kts | 261° |
| 2026-04-26 19:18 | 52.45048 | 20.64440 | 337 ft | 17 kts | 245° |
| 2026-04-26 19:18 | 52.44966 | 20.64386 | 339 ft | 13 kts | 182° |
| 2026-04-26 19:18 | 52.44891 | 20.64381 | 340 ft | 10 kts | 182° |
| 2026-04-26 19:18 | 52.44815 | 20.64377 | 340 ft | 12 kts | 182° |
| 2026-04-26 19:19 | 52.44760 | 20.64373 | 340 ft | 6 kts | 183° |
| 2026-04-26 19:19 | 52.44742 | 20.64372 | 338 ft | 0 kts | 180° |
| 2026-04-26 19:20 | 52.44740 | 20.64372 | 338 ft | 1 kts | 177° |
| 2026-04-26 19:20 | 52.44715 | 20.64405 | 339 ft | 7 kts | 109° |
| 2026-04-26 19:20 | 52.44720 | 20.64513 | 338 ft | 11 kts | 81° |
| 2026-04-26 19:21 | 52.44734 | 20.64658 | 340 ft | 14 kts | 80° |
| 2026-04-26 19:21 | 52.44751 | 20.64830 | 336 ft | 13 kts | 81° |
| 2026-04-26 19:21 | 52.44765 | 20.64972 | 337 ft | 12 kts | 81° |
| 2026-04-26 19:21 | 52.44759 | 20.65038 | 337 ft | 5 kts | 145° |
| 2026-04-26 19:22 | 52.44735 | 20.65029 | 338 ft | 4 kts | 205° |
| 2026-04-26 19:22 | 52.44722 | 20.65019 | 339 ft | 0 kts | 206° |